createdAt,value
2023-06-17T00:00:56.477Z,5.68
2023-06-17T00:03:23.383Z,6.00
2023-06-17T00:05:50.482Z,7.13
2023-06-17T00:08:17.290Z,6.10
2023-06-17T00:10:45.291Z,5.63
2023-06-17T00:13:13.682Z,6.80
2023-06-17T00:15:43.444Z,6.85
2023-06-17T00:18:10.351Z,6.00
2023-06-17T00:20:37.752Z,6.40
2023-06-17T00:23:05.290Z,7.10
2023-06-17T00:25:32.316Z,7.63
2023-06-17T00:27:59.216Z,7.63
2023-06-17T00:30:26.229Z,7.43
2023-06-17T00:32:53.129Z,7.28
2023-06-17T00:35:21.444Z,7.75
2023-06-17T00:37:48.348Z,7.80
2023-06-17T00:40:15.741Z,7.78
2023-06-17T00:42:42.804Z,7.70
2023-06-17T00:45:10.922Z,7.18
2023-06-17T00:47:39.414Z,6.93
2023-06-17T00:50:09.570Z,7.63
2023-06-17T00:52:42.715Z,7.40
2023-06-17T00:55:12.065Z,6.88
2023-06-17T00:57:39.950Z,7.15
2023-06-17T01:00:11.867Z,7.70
2023-06-17T01:02:45.265Z,6.90
2023-06-17T01:05:14.223Z,7.93
2023-06-17T01:08:06.486Z,8.38
2023-06-17T01:10:36.998Z,8.20
2023-06-17T01:13:06.096Z,8.73
2023-06-17T01:15:37.072Z,8.85
2023-06-17T01:18:06.297Z,8.60
2023-06-17T01:20:34.070Z,8.73
2023-06-17T01:23:02.184Z,9.20
2023-06-17T01:25:32.684Z,8.90
2023-06-17T01:28:04.661Z,9.05
2023-06-17T01:30:32.371Z,9.25
2023-06-17T01:33:01.906Z,8.68
2023-06-17T01:35:32.765Z,8.70
2023-06-17T01:38:05.726Z,9.77
2023-06-17T01:40:34.141Z,9.05
2023-06-17T01:43:03.906Z,8.85
2023-06-17T01:45:32.263Z,8.80
2023-06-17T01:47:59.546Z,8.65
2023-06-17T01:50:26.457Z,9.02
2023-06-17T01:52:53.279Z,9.15
2023-06-17T01:55:20.775Z,10.65
2023-06-17T01:57:47.578Z,10.15
2023-06-17T02:00:14.958Z,9.45
2023-06-17T02:02:51.899Z,9.35
2023-06-17T02:05:21.214Z,10.20
2023-06-17T02:07:48.908Z,8.75
2023-06-17T02:10:16.441Z,9.77
2023-06-17T02:12:43.186Z,11.68
2023-06-17T02:15:12.239Z,10.95
2023-06-17T02:17:38.967Z,10.50
2023-06-17T02:20:10.794Z,10.15
2023-06-17T02:22:37.669Z,10.35
2023-06-17T02:25:06.213Z,12.13
2023-06-17T02:27:32.935Z,11.73
2023-06-17T02:29:59.677Z,11.35
2023-06-17T02:32:28.880Z,11.60
2023-06-17T02:34:55.665Z,11.70
2023-06-17T02:37:22.346Z,10.90
2023-06-17T02:39:49.267Z,12.18
2023-06-17T02:42:16.029Z,12.18
2023-06-17T02:44:42.953Z,12.07
2023-06-17T02:47:09.719Z,12.30
2023-06-17T02:49:36.785Z,11.27
2023-06-17T02:52:03.792Z,12.95
2023-06-17T02:54:30.750Z,13.07
2023-06-17T02:56:58.277Z,15.13
2023-06-17T02:59:25.081Z,15.65
2023-06-17T03:01:57.199Z,16.30
2023-06-17T03:04:24.481Z,15.77
2023-06-17T03:06:52.259Z,17.05
2023-06-17T03:09:19.641Z,16.73
2023-06-17T03:11:47.095Z,18.67
2023-06-17T03:14:13.934Z,17.98
2023-06-17T03:16:41.696Z,16.40
2023-06-17T03:19:08.948Z,16.08
2023-06-17T03:21:41.934Z,17.60
2023-06-17T03:24:09.802Z,16.83
2023-06-17T03:26:36.678Z,15.65
2023-06-17T03:29:04.701Z,17.52
2023-06-17T03:31:32.154Z,17.15
2023-06-17T03:33:59.124Z,17.67
2023-06-17T03:36:29.605Z,19.10
2023-06-17T03:38:58.236Z,22.35
2023-06-17T03:41:29.726Z,24.08
2023-06-17T03:43:56.464Z,23.73
2023-06-17T03:46:23.245Z,27.02
2023-06-17T03:48:50.176Z,25.95
2023-06-17T03:51:18.588Z,27.20
2023-06-17T03:53:46.216Z,26.63
2023-06-17T03:56:14.587Z,24.85
2023-06-17T03:58:41.638Z,21.42
2023-06-17T04:01:08.658Z,22.05
2023-06-17T04:03:36.127Z,21.35
2023-06-17T04:06:03.377Z,22.00
2023-06-17T04:08:33.913Z,21.50
2023-06-17T04:11:00.876Z,18.92
2023-06-17T04:13:27.835Z,18.13
2023-06-17T04:15:54.573Z,17.48
2023-06-17T04:18:21.951Z,18.35
2023-06-17T04:20:50.522Z,18.83
2023-06-17T04:23:17.299Z,19.83
2023-06-17T04:25:44.232Z,19.90
2023-06-17T04:28:13.858Z,20.40
2023-06-17T04:30:41.116Z,18.90
2023-06-17T04:33:12.728Z,20.13
2023-06-17T04:35:43.163Z,18.65
2023-06-17T04:38:11.712Z,20.63
2023-06-17T04:40:40.046Z,20.15
2023-06-17T04:43:10.904Z,22.27
2023-06-17T04:45:37.637Z,21.17
2023-06-17T04:48:07.313Z,22.40
2023-06-17T04:50:34.903Z,22.13
2023-06-17T04:53:04.694Z,23.60
2023-06-17T04:55:36.499Z,23.73
2023-06-17T04:58:04.848Z,23.92
2023-06-17T05:00:40.432Z,22.50
2023-06-17T05:03:08.024Z,24.05
2023-06-17T05:05:36.613Z,23.00
2023-06-17T05:08:04.487Z,24.05
2023-06-17T05:10:31.363Z,23.05
2023-06-17T05:12:58.200Z,22.48
2023-06-17T05:15:27.637Z,23.27
2023-06-17T05:17:54.553Z,23.98
2023-06-17T05:20:21.621Z,23.80
2023-06-17T05:22:48.703Z,25.15
2023-06-17T05:25:15.644Z,22.23
2023-06-17T05:27:42.392Z,21.27
2023-06-17T05:30:10.038Z,20.67
2023-06-17T05:32:39.407Z,18.10
2023-06-17T05:35:06.603Z,19.75
2023-06-17T05:37:34.550Z,19.70
2023-06-17T05:40:03.433Z,17.40
2023-06-17T05:42:32.601Z,17.88
2023-06-17T05:44:59.383Z,19.05
2023-06-17T05:47:28.212Z,17.95
2023-06-17T05:49:54.961Z,17.00
2023-06-17T05:52:21.756Z,17.48
2023-06-17T05:54:48.646Z,19.00
2023-06-17T05:57:16.435Z,25.17
2023-06-17T05:59:43.164Z,29.08
2023-06-17T06:02:09.869Z,25.35
2023-06-17T06:04:36.639Z,26.75
2023-06-17T06:07:04.299Z,24.90
2023-06-17T06:09:31.092Z,21.80
2023-06-17T06:11:57.904Z,26.48
2023-06-17T06:14:24.836Z,25.70
2023-06-17T06:16:52.379Z,22.58
2023-06-17T06:19:20.414Z,25.83
2023-06-17T06:21:47.138Z,32.28
2023-06-17T06:24:13.907Z,28.52
2023-06-17T06:26:41.471Z,27.95
2023-06-17T06:29:11.159Z,24.08
2023-06-17T06:31:37.963Z,20.23
2023-06-17T06:34:04.710Z,20.33
2023-06-17T06:36:31.535Z,22.13
2023-06-17T06:38:58.316Z,23.60
2023-06-17T06:41:25.473Z,20.02
2023-06-17T06:44:02.604Z,18.80
2023-06-17T06:46:32.629Z,19.63
2023-06-17T06:48:59.965Z,20.08
2023-06-17T06:51:27.884Z,25.17
2023-06-17T06:53:54.943Z,24.48
2023-06-17T06:56:21.824Z,22.35
2023-06-17T06:58:48.543Z,20.52
2023-06-17T07:01:15.396Z,19.15
2023-06-17T07:03:42.946Z,21.80
2023-06-17T07:06:10.090Z,22.17
2023-06-17T07:08:37.242Z,20.60
2023-06-17T07:11:03.971Z,21.38
2023-06-17T07:13:30.842Z,20.55
2023-06-17T07:15:57.583Z,18.00
2023-06-17T07:18:25.946Z,17.73
2023-06-17T07:20:52.676Z,15.43
2023-06-17T07:23:20.183Z,16.65
2023-06-17T07:25:48.303Z,14.93
2023-06-17T07:28:16.051Z,17.10
2023-06-17T07:30:43.058Z,13.90
2023-06-17T07:33:10.040Z,16.10
2023-06-17T07:35:37.844Z,17.40
2023-06-17T07:38:04.630Z,13.85
2023-06-17T07:40:31.509Z,16.50
2023-06-17T07:42:58.299Z,16.02
2023-06-17T07:45:25.163Z,14.90
2023-06-17T07:47:52.015Z,16.17
2023-06-17T07:50:19.023Z,16.08
2023-06-17T07:52:45.933Z,15.48
2023-06-17T07:55:12.783Z,15.45
2023-06-17T07:57:39.657Z,16.25
2023-06-17T08:00:11.201Z,14.82
2023-06-17T08:02:42.855Z,15.93
2023-06-17T08:05:10.653Z,14.98
2023-06-17T08:07:37.511Z,15.77
2023-06-17T08:10:07.352Z,14.98
2023-06-17T08:12:36.309Z,15.40
2023-06-17T08:15:03.449Z,15.20
2023-06-17T08:17:30.298Z,16.33
2023-06-17T08:19:57.163Z,14.15
2023-06-17T08:22:24.015Z,14.35
2023-06-17T08:24:50.782Z,14.60
2023-06-17T08:27:17.553Z,13.98
2023-06-17T08:29:44.350Z,13.50
2023-06-17T08:32:11.044Z,14.38
2023-06-17T08:34:38.058Z,15.23
2023-06-17T08:37:05.795Z,15.05
2023-06-17T08:39:33.309Z,15.02
2023-06-17T08:42:00.165Z,15.48
2023-06-17T08:44:32.347Z,12.30
2023-06-17T08:47:02.194Z,11.88
2023-06-17T08:49:29.981Z,15.00
2023-06-17T08:51:59.548Z,16.33
2023-06-17T08:54:28.707Z,15.18
2023-06-17T08:56:55.653Z,13.80
2023-06-17T08:59:22.399Z,14.20
2023-06-17T09:01:52.454Z,13.63
2023-06-17T09:04:22.177Z,14.10
2023-06-17T09:06:49.748Z,14.63
2023-06-17T09:09:16.982Z,13.77
2023-06-17T09:11:53.135Z,14.10
2023-06-17T09:14:23.218Z,14.35
2023-06-17T09:16:51.163Z,13.45
2023-06-17T09:19:18.364Z,13.90
2023-06-17T09:21:48.703Z,14.40
2023-06-17T09:24:15.884Z,14.27
2023-06-17T09:26:46.218Z,13.98
2023-06-17T09:29:14.475Z,14.98
2023-06-17T09:31:49.367Z,15.40
2023-06-17T09:34:16.677Z,15.45
2023-06-17T09:36:43.818Z,14.48
2023-06-17T09:39:14.221Z,12.30
2023-06-17T09:41:42.007Z,13.23
2023-06-17T09:44:09.706Z,14.00
2023-06-17T09:46:40.519Z,13.35
2023-06-17T09:49:10.088Z,13.82
2023-06-17T09:51:39.046Z,14.82
2023-06-17T09:54:07.235Z,13.13
2023-06-17T09:56:34.815Z,12.35
2023-06-17T09:59:05.078Z,12.98
2023-06-17T10:01:32.195Z,14.63
2023-06-17T10:03:59.778Z,13.50
2023-06-17T10:06:36.992Z,11.23
2023-06-17T10:09:09.135Z,14.02
2023-06-17T10:14:13.449Z,13.82
2023-06-17T10:16:45.353Z,14.35
2023-06-17T10:19:14.543Z,13.50
2023-06-17T10:21:46.720Z,14.95
2023-06-17T10:24:14.906Z,10.98
2023-06-17T10:26:41.786Z,11.15
2023-06-17T10:29:11.303Z,12.35
2023-06-17T10:31:40.700Z,12.10
2023-06-17T10:34:14.672Z,13.90
2023-06-17T10:36:41.395Z,12.20
2023-06-17T10:39:12.922Z,11.45
2023-06-17T10:41:39.706Z,12.80
2023-06-17T10:44:21.436Z,10.75
2023-06-17T10:46:52.060Z,11.40
2023-06-17T10:49:21.047Z,10.25
2023-06-17T10:51:58.435Z,11.75
2023-06-17T10:54:34.240Z,10.93
2023-06-17T10:57:07.161Z,11.80
2023-06-17T10:59:34.808Z,11.85
2023-06-17T11:02:09.587Z,10.20
2023-06-17T11:04:41.888Z,10.63
2023-06-17T11:07:09.335Z,9.90
2023-06-17T11:09:37.365Z,11.80
2023-06-17T11:12:05.036Z,11.13
2023-06-17T11:14:33.648Z,11.48
2023-06-17T11:17:00.773Z,9.65
2023-06-17T11:19:27.602Z,10.50
2023-06-17T11:21:58.718Z,9.00
2023-06-17T11:24:29.028Z,9.05
2023-06-17T11:26:56.216Z,9.07
2023-06-17T11:29:23.797Z,9.40
2023-06-17T11:31:51.362Z,9.75
2023-06-17T11:34:18.310Z,9.23
2023-06-17T11:36:46.684Z,7.95
2023-06-17T11:39:14.875Z,8.90
2023-06-17T11:41:42.223Z,7.95
2023-06-17T11:44:09.072Z,8.30
2023-06-17T11:46:40.809Z,7.90
2023-06-17T11:49:07.617Z,8.35
2023-06-17T11:51:37.101Z,9.10
2023-06-17T11:54:07.202Z,8.30
2023-06-17T11:56:34.037Z,8.02
2023-06-17T11:59:02.333Z,7.60
2023-06-17T12:01:29.077Z,7.70
2023-06-17T12:03:57.469Z,7.00
2023-06-17T12:06:25.016Z,7.78
2023-06-17T12:09:05.011Z,7.07
2023-06-17T12:11:33.812Z,7.15
2023-06-17T12:14:01.040Z,8.38
2023-06-17T12:16:38.369Z,8.43
2023-06-17T12:19:07.392Z,7.53
2023-06-17T12:21:35.371Z,6.97
2023-06-17T12:24:03.474Z,7.30
2023-06-17T12:26:32.799Z,7.15
2023-06-17T12:29:03.085Z,7.53
2023-06-17T12:31:35.692Z,7.70
2023-06-17T12:34:03.358Z,7.72
2023-06-17T12:36:32.428Z,7.38
2023-06-17T12:39:01.670Z,7.03
2023-06-17T12:41:28.561Z,6.28
2023-06-17T12:43:55.771Z,6.38
2023-06-17T12:46:22.787Z,6.47
2023-06-17T12:48:49.952Z,6.72
2023-06-17T12:51:16.925Z,6.57
2023-06-17T12:53:44.233Z,6.40
2023-06-17T12:56:11.227Z,6.95
2023-06-17T12:58:37.997Z,6.55
2023-06-17T13:01:04.970Z,6.93
2023-06-17T13:03:32.425Z,6.75
2023-06-17T13:05:59.457Z,6.47
2023-06-17T13:08:26.800Z,6.63
2023-06-17T13:10:53.491Z,6.28
2023-06-17T13:13:20.248Z,6.43
2023-06-17T13:15:48.480Z,6.32
2023-06-17T13:18:15.411Z,6.13
2023-06-17T13:20:43.050Z,6.68
2023-06-17T13:23:09.880Z,6.68
2023-06-17T13:25:36.775Z,6.97
2023-06-17T13:28:03.696Z,6.65
2023-06-17T13:30:31.127Z,7.28
2023-06-17T13:32:58.208Z,5.95
2023-06-17T13:35:25.094Z,6.40
2023-06-17T13:37:53.924Z,6.05
2023-06-17T13:40:20.932Z,6.53
2023-06-17T13:42:48.260Z,6.78
2023-06-17T13:45:15.956Z,6.05
2023-06-17T13:47:42.840Z,6.30
2023-06-17T13:50:10.369Z,6.07
2023-06-17T13:52:37.674Z,5.75
2023-06-17T13:55:05.067Z,6.10
2023-06-17T13:57:32.219Z,5.55
2023-06-17T13:59:59.014Z,6.55
2023-06-17T14:02:28.940Z,6.07
2023-06-17T14:04:56.078Z,6.38
2023-06-17T14:07:22.818Z,5.72
2023-06-17T14:09:49.583Z,5.68
2023-06-17T14:12:16.558Z,5.63
2023-06-17T14:14:43.655Z,5.70
2023-06-17T14:17:10.854Z,5.90
2023-06-17T14:19:37.624Z,5.80
2023-06-17T14:22:06.892Z,6.15
2023-06-17T14:24:37.736Z,6.18
2023-06-17T14:27:35.475Z,6.17
2023-06-17T14:30:03.821Z,5.90
2023-06-17T14:32:30.686Z,6.10
2023-06-17T14:34:58.932Z,5.82
2023-06-17T14:37:26.298Z,5.80
2023-06-17T14:39:53.084Z,5.47
2023-06-17T14:42:19.877Z,5.70
2023-06-17T14:44:46.614Z,5.55
2023-06-17T14:47:13.338Z,6.68
2023-06-17T14:49:40.280Z,5.72
2023-06-17T14:52:07.396Z,5.97
2023-06-17T14:54:34.566Z,5.45
2023-06-17T14:57:02.622Z,5.53
2023-06-17T14:59:29.340Z,6.10
2023-06-17T15:01:56.263Z,6.30
2023-06-17T15:04:23.059Z,5.50
2023-06-17T15:06:49.856Z,5.88
2023-06-17T15:09:29.152Z,6.22
2023-06-17T15:12:00.867Z,5.43
2023-06-17T15:14:29.978Z,5.65
2023-06-17T15:16:57.498Z,6.28
2023-06-17T15:19:24.266Z,6.57
2023-06-17T15:21:51.161Z,6.00
2023-06-17T15:24:18.146Z,6.03
2023-06-17T15:26:46.226Z,5.68
2023-06-17T15:29:14.263Z,6.03
2023-06-17T15:31:41.011Z,6.25
2023-06-17T15:34:08.264Z,5.88
2023-06-17T15:36:35.299Z,6.30
2023-06-17T15:39:19.922Z,6.07
2023-06-17T15:41:47.410Z,5.55
2023-06-17T15:44:15.832Z,5.90
2023-06-17T15:46:42.926Z,6.25
2023-06-17T15:49:09.989Z,6.47
2023-06-17T15:51:37.370Z,5.97
2023-06-17T15:54:05.425Z,6.00
2023-06-17T15:56:32.515Z,6.75
2023-06-17T15:59:00.753Z,6.18
2023-06-17T16:01:28.382Z,6.68
2023-06-17T16:03:56.743Z,7.07
2023-06-17T16:06:23.657Z,6.47
2023-06-17T16:08:50.729Z,6.00
2023-06-17T16:11:17.523Z,5.95
2023-06-17T16:13:44.273Z,5.70
2023-06-17T16:16:11.230Z,6.28
2023-06-17T16:18:38.044Z,5.75
2023-06-17T16:21:04.719Z,5.72
2023-06-17T16:23:32.506Z,5.80
2023-06-17T16:26:00.005Z,6.38
2023-06-17T16:28:26.873Z,6.57
2023-06-17T16:30:53.610Z,5.70
2023-06-17T16:33:20.554Z,6.25
2023-06-17T16:35:47.392Z,6.15
2023-06-17T16:38:14.288Z,6.10
2023-06-17T16:40:41.026Z,6.30
2023-06-17T16:43:07.763Z,6.18
2023-06-17T16:45:35.331Z,7.85
2023-06-17T16:48:02.246Z,6.43
2023-06-17T16:50:29.076Z,6.20
2023-06-17T16:52:55.758Z,7.10
2023-06-17T16:55:22.554Z,6.35
2023-06-17T16:57:49.264Z,6.82
2023-06-17T17:00:17.733Z,6.32
2023-06-17T17:02:44.625Z,6.50
2023-06-17T17:05:11.501Z,6.70
2023-06-17T17:07:38.275Z,7.03
2023-06-17T17:10:05.499Z,7.07
2023-06-17T17:12:32.204Z,7.07
2023-06-17T17:14:58.944Z,7.20
2023-06-17T17:17:25.796Z,7.03
2023-06-17T17:19:54.014Z,7.35
2023-06-17T17:22:20.757Z,7.82
2023-06-17T17:24:47.664Z,7.63
2023-06-17T17:27:14.452Z,7.55
2023-06-17T17:29:41.383Z,8.15
2023-06-17T17:32:08.428Z,7.80
2023-06-17T17:34:35.224Z,8.00
2023-06-17T17:37:02.007Z,8.10
2023-06-17T17:39:28.720Z,7.63
2023-06-17T17:41:55.549Z,8.30
2023-06-17T17:44:22.337Z,9.13
2023-06-17T17:46:49.078Z,8.85
2023-06-17T17:49:16.588Z,9.57
2023-06-17T17:51:43.425Z,8.57
2023-06-17T17:54:10.158Z,9.13
2023-06-17T17:56:37.147Z,8.98
2023-06-17T17:59:03.938Z,8.90
2023-06-17T18:01:30.722Z,8.65
2023-06-17T18:03:58.719Z,9.73
2023-06-17T18:06:26.469Z,8.95
2023-06-17T18:08:53.426Z,9.60
2023-06-17T18:11:20.441Z,9.77
2023-06-17T18:13:47.207Z,9.02
2023-06-17T18:16:14.092Z,8.02
2023-06-17T18:18:40.895Z,8.38
2023-06-17T18:21:07.576Z,9.05
2023-06-17T18:23:34.321Z,9.27
2023-06-17T18:26:01.268Z,8.95
2023-06-17T18:28:28.054Z,8.80
2023-06-17T18:30:55.217Z,9.80
2023-06-17T18:33:22.525Z,8.80
2023-06-17T18:35:49.563Z,9.25
2023-06-17T18:38:16.777Z,8.52
2023-06-17T18:40:43.715Z,8.52
2023-06-17T18:43:10.468Z,9.30
2023-06-17T18:45:37.253Z,9.63
2023-06-17T18:48:04.499Z,8.80
2023-06-17T18:50:31.419Z,9.60
2023-06-17T18:52:58.353Z,8.35
2023-06-17T18:55:25.278Z,8.82
2023-06-17T18:57:52.662Z,8.68
2023-06-17T19:00:20.016Z,7.82
2023-06-17T19:02:47.282Z,8.65
2023-06-17T19:05:14.132Z,8.15
2023-06-17T19:07:44.704Z,8.82
2023-06-17T19:10:14.692Z,8.60
2023-06-17T19:12:41.482Z,8.90
2023-06-17T19:15:10.479Z,8.13
2023-06-17T19:17:40.822Z,8.48
2023-06-17T19:20:08.952Z,8.05
2023-06-17T19:22:37.484Z,8.40
2023-06-17T19:25:06.204Z,7.25
2023-06-17T19:27:33.770Z,7.50
2023-06-17T19:30:02.635Z,8.48
2023-06-17T19:32:29.794Z,7.95
2023-06-17T19:34:59.225Z,8.95
2023-06-17T19:37:30.359Z,6.70
2023-06-17T19:39:57.080Z,6.75
2023-06-17T19:42:23.985Z,6.50
2023-06-17T19:44:57.257Z,5.78
2023-06-17T19:47:25.698Z,6.40
2023-06-17T19:49:56.929Z,6.03
2023-06-17T19:52:24.260Z,6.28
2023-06-17T19:54:51.485Z,6.35
2023-06-17T19:57:18.413Z,6.07
2023-06-17T19:59:45.266Z,6.07
2023-06-17T20:02:15.113Z,5.40
2023-06-17T20:04:42.008Z,6.15
2023-06-17T20:07:08.847Z,5.78
2023-06-17T20:09:35.632Z,5.40
2023-06-17T20:12:02.494Z,5.95
2023-06-17T20:14:29.230Z,5.50
2023-06-17T20:16:55.961Z,5.70
2023-06-17T20:19:22.689Z,5.85
2023-06-17T20:21:49.440Z,5.45
2023-06-17T20:24:16.312Z,5.47
2023-06-17T20:26:43.085Z,5.32
2023-06-17T20:29:09.920Z,5.82
2023-06-17T20:31:36.670Z,5.20
2023-06-17T20:34:03.419Z,5.35
2023-06-17T20:36:30.581Z,5.90
2023-06-17T20:38:57.388Z,5.38
2023-06-17T20:41:24.121Z,5.10
2023-06-17T20:43:50.895Z,5.00
2023-06-17T20:46:17.763Z,5.57
2023-06-17T20:48:44.610Z,5.20
2023-06-17T20:51:11.564Z,5.20
2023-06-17T20:53:38.371Z,6.00
2023-06-17T20:56:05.067Z,5.57
2023-06-17T20:58:31.794Z,5.60
2023-06-17T21:00:58.756Z,4.75
2023-06-17T21:03:25.603Z,5.30
2023-06-17T21:05:52.418Z,5.25
2023-06-17T21:08:19.226Z,6.40
2023-06-17T21:10:46.256Z,5.85
2023-06-17T21:13:13.155Z,5.85
2023-06-17T21:15:39.908Z,6.00
2023-06-17T21:18:06.983Z,6.38
2023-06-17T21:20:33.852Z,5.75
2023-06-17T21:23:03.591Z,6.10
2023-06-17T21:25:30.341Z,5.65
2023-06-17T21:27:57.091Z,5.68
2023-06-17T21:30:24.265Z,6.18
2023-06-17T21:32:51.238Z,5.53
2023-06-17T21:35:18.254Z,5.75
2023-06-17T21:37:45.047Z,6.50
2023-06-17T21:40:12.586Z,6.20
2023-06-17T21:42:39.915Z,6.25
2023-06-17T21:45:07.347Z,6.70
2023-06-17T21:47:34.082Z,6.13
2023-06-17T21:50:00.846Z,7.18
2023-06-17T21:52:27.589Z,6.22
2023-06-17T21:54:54.275Z,8.05
2023-06-17T21:57:21.165Z,7.18
2023-06-17T21:59:48.177Z,7.18
2023-06-17T22:02:15.236Z,7.90
2023-06-17T22:04:41.988Z,7.22
2023-06-17T22:07:08.971Z,6.38
2023-06-17T22:09:35.838Z,6.80
2023-06-17T22:12:02.568Z,7.00
2023-06-17T22:14:29.325Z,6.78
2023-06-17T22:16:56.099Z,7.18
2023-06-17T22:19:22.975Z,8.02
2023-06-17T22:21:49.832Z,7.72
2023-06-17T22:24:16.768Z,7.45
2023-06-17T22:26:43.496Z,7.35
2023-06-17T22:29:10.227Z,8.57
2023-06-17T22:31:36.929Z,8.52
2023-06-17T22:34:03.786Z,10.25
2023-06-17T22:36:30.566Z,9.07
2023-06-17T22:38:57.307Z,8.80
2023-06-17T22:41:24.140Z,8.95
2023-06-17T22:43:51.362Z,9.15
2023-06-17T22:46:18.675Z,8.57
2023-06-17T22:48:45.557Z,8.85
2023-06-17T22:51:12.441Z,8.27
2023-06-17T22:53:39.554Z,9.45
2023-06-17T22:56:06.451Z,9.45
2023-06-17T22:58:33.171Z,9.27
2023-06-17T23:00:59.949Z,9.70
2023-06-17T23:03:26.831Z,10.55
2023-06-17T23:05:53.551Z,9.25
2023-06-17T23:08:20.429Z,9.13
2023-06-17T23:10:47.282Z,9.90
2023-06-17T23:13:14.087Z,9.48
2023-06-17T23:15:41.280Z,10.00
2023-06-17T23:18:08.300Z,9.50
2023-06-17T23:20:35.062Z,9.80
2023-06-17T23:23:04.053Z,10.82
2023-06-17T23:25:31.554Z,10.18
2023-06-17T23:27:58.345Z,10.55
2023-06-17T23:30:25.889Z,9.43
2023-06-17T23:32:53.386Z,9.38
2023-06-17T23:35:20.470Z,10.07
2023-06-17T23:37:48.339Z,10.73
2023-06-17T23:40:15.139Z,10.52
2023-06-17T23:42:42.137Z,10.88
2023-06-17T23:45:12.756Z,10.48
2023-06-17T23:47:39.610Z,11.60
2023-06-17T23:50:07.091Z,10.60
2023-06-17T23:52:33.840Z,10.43
2023-06-17T23:55:02.465Z,11.27
2023-06-17T23:57:29.584Z,10.98
2023-06-17T23:59:58.732Z,9.70
